Time;durP1;ratioP1;P1;durP2;ratioP2;P2;SDS_P1;SDS_P2;PMS_P1;PMS_P2;Temp;Humidity;BMP_temperature;BMP_pressure;BME280_temperature;BME280_humidity;BME280_pressure;Samples;Min_cycle;Max_cycle;Signal;HPM_P1;HPM_P2
2021/05/24 00:00:18;;;;;;;13.50;3.10;;;;;;;23.71;43.12;100256.56;4483841;32;33397;-60
2021/05/24 00:02:46;;;;;;;13.40;2.97;;;;;;;23.70;43.15;100254.91;4484250;32;33682;-60
2021/05/24 00:05:21;;;;;;;13.60;2.90;;;;;;;23.69;43.15;100243.16;4484179;32;33835;-61
2021/05/24 00:07:49;;;;;;;12.60;2.95;;;;;;;23.70;43.11;100246.72;4484176;32;34122;-61
2021/05/24 00:10:27;;;;;;;12.15;2.80;;;;;;;23.70;43.11;100254.91;4483381;32;33543;-62
2021/05/24 00:12:57;;;;;;;10.18;3.47;;;;;;;23.68;43.13;100246.91;4484406;32;34551;-62
2021/05/24 00:15:31;;;;;;;9.25;2.95;;;;;;;23.67;43.23;100257.00;4484166;32;33876;-62
2021/05/24 00:17:59;;;;;;;10.38;3.10;;;;;;;23.66;43.26;100255.31;4484070;32;34686;-62
2021/05/24 00:20:29;;;;;;;10.23;2.90;;;;;;;23.65;43.24;100253.66;4484125;32;33565;-63
2021/05/24 00:22:56;;;;;;;11.05;2.60;;;;;;;23.66;43.23;100262.66;4484072;32;33919;-62
2021/05/24 00:25:25;;;;;;;14.90;2.97;;;;;;;23.66;43.21;100265.38;4484008;32;33913;-61
2021/05/24 00:27:52;;;;;;;14.98;2.58;;;;;;;23.66;43.21;100268.13;4484033;32;33900;-61
2021/05/24 00:30:20;;;;;;;13.45;3.60;;;;;;;23.65;43.26;100269.16;4484091;32;34898;-62
2021/05/24 00:32:48;;;;;;;13.50;3.10;;;;;;;23.64;43.29;100281.97;4484051;32;33806;-61
2021/05/24 00:35:15;;;;;;;10.02;2.85;;;;;;;23.64;43.42;100284.69;4483693;32;33850;-61
2021/05/24 00:38:03;;;;;;;9.18;2.70;;;;;;;23.64;43.44;100284.69;4482517;32;34209;-61
2021/05/24 00:40:31;;;;;;;11.73;2.58;;;;;;;23.65;43.39;100280.91;4484013;32;34471;-63
2021/05/24 00:43:00;;;;;;;6.62;2.50;;;;;;;23.64;43.27;100281.97;4483951;32;33849;-62
2021/05/24 00:45:27;;;;;;;9.27;2.65;;;;;;;23.64;43.33;100283.81;4483922;32;35399;-62
2021/05/24 00:47:55;;;;;;;13.68;2.78;;;;;;;23.63;43.37;100277.50;4484234;32;34616;-62
2021/05/24 00:50:23;;;;;;;7.32;2.72;;;;;;;23.63;43.43;100276.69;4483947;32;33546;-62
2021/05/24 00:52:51;;;;;;;10.48;2.70;;;;;;;23.62;43.42;100277.72;4483644;32;33925;-62
2021/05/24 00:55:18;;;;;;;10.23;2.28;;;;;;;23.62;43.54;100267.66;4483723;32;33911;-62
2021/05/24 00:57:47;;;;;;;7.87;2.70;;;;;;;23.62;43.54;100281.28;4483756;32;34090;-62
2021/05/24 01:00:21;;;;;;;8.63;2.60;;;;;;;23.62;43.51;100283.19;4483560;32;34333;-62
2021/05/24 01:02:51;;;;;;;8.57;2.70;;;;;;;23.61;43.53;100270.63;4483646;32;33803;-62
2021/05/24 01:05:19;;;;;;;9.82;2.53;;;;;;;23.60;43.60;100277.97;4483755;32;33871;-62
2021/05/24 01:07:46;;;;;;;10.68;2.70;;;;;;;23.61;43.57;100279.62;4483355;32;33735;-62
2021/05/24 01:10:14;;;;;;;9.13;2.30;;;;;;;23.60;43.56;100282.56;4483597;32;33555;-62
2021/05/24 01:12:42;;;;;;;9.73;2.60;;;;;;;23.59;43.60;100287.16;4483965;32;33886;-61
2021/05/24 01:15:10;;;;;;;11.43;2.70;;;;;;;23.61;43.35;100285.06;4483564;32;34087;-63
2021/05/24 01:17:38;;;;;;;8.38;2.70;;;;;;;23.60;43.47;100280.69;4483638;32;33710;-62
2021/05/24 01:20:06;;;;;;;7.45;2.62;;;;;;;23.60;43.54;100288.84;4483436;32;33622;-62
2021/05/24 01:22:37;;;;;;;10.70;3.25;;;;;;;23.59;43.57;100280.87;4483333;32;33934;-61
2021/05/24 01:25:05;;;;;;;8.88;2.40;;;;;;;23.59;43.58;100286.31;4483222;32;33379;-62
2021/05/24 01:27:33;;;;;;;10.27;2.20;;;;;;;23.59;43.56;100281.72;4483213;32;34700;-62
2021/05/24 01:30:01;;;;;;;8.18;2.65;;;;;;;23.59;43.56;100284.44;4481847;32;33557;-62
2021/05/24 01:32:29;;;;;;;7.90;2.45;;;;;;;23.58;43.60;100280.03;4483111;32;34877;-62
2021/05/24 01:34:56;;;;;;;10.82;2.70;;;;;;;23.60;43.55;100288.03;4482930;32;34956;-62
2021/05/24 01:37:24;;;;;;;11.43;2.78;;;;;;;23.59;43.60;100289.06;4483200;32;34251;-62
2021/05/24 01:39:51;;;;;;;10.48;2.40;;;;;;;23.58;43.63;100288.22;4483247;32;33689;-61
2021/05/24 01:42:19;;;;;;;15.88;3.72;;;;;;;23.58;43.67;100280.03;4483118;32;33814;-61
2021/05/24 01:44:47;;;;;;;11.40;3.40;;;;;;;23.57;43.63;100283.81;4483422;32;34762;-62
2021/05/24 01:47:15;;;;;;;10.10;2.83;;;;;;;23.57;43.69;100286.56;4483045;32;34075;-62
2021/05/24 01:49:47;;;;;;;11.27;2.72;;;;;;;23.58;43.65;100287.38;4482996;32;33652;-62
2021/05/24 01:52:16;;;;;;;7.65;2.65;;;;;;;23.58;43.69;100288.22;4482956;32;33934;-62
2021/05/24 01:54:44;;;;;;;10.48;2.40;;;;;;;23.58;43.74;100298.28;4481666;32;34903;-62
2021/05/24 01:57:11;;;;;;;7.70;2.60;;;;;;;23.57;43.71;100300.16;4482856;32;34019;-62
2021/05/24 01:59:39;;;;;;;8.38;2.55;;;;;;;23.57;43.64;100310.22;4482720;32;34279;-62
2021/05/24 02:02:07;;;;;;;9.20;2.42;;;;;;;23.56;43.69;100320.28;4482886;32;34356;-61
2021/05/24 02:04:35;;;;;;;6.43;2.20;;;;;;;23.57;43.73;100313.78;4482693;32;33890;-61
2021/05/24 02:07:03;;;;;;;8.35;2.47;;;;;;;23.58;43.37;100311.91;4483058;32;34810;-62
2021/05/24 02:09:30;;;;;;;7.50;2.62;;;;;;;23.57;43.37;100311.06;4483229;32;34153;-62
2021/05/24 02:11:58;;;;;;;6.28;2.30;;;;;;;23.55;43.68;100302.28;4482823;32;33781;-62
2021/05/24 02:14:26;;;;;;;8.60;2.33;;;;;;;23.55;43.79;100296.84;4483002;32;33816;-63
2021/05/24 02:16:54;;;;;;;13.43;2.40;;;;;;;23.57;43.76;100288.44;4482636;32;34032;-62
2021/05/24 02:19:22;;;;;;;9.93;2.40;;;;;;;23.55;43.77;100290.53;4484321;32;34419;-62
2021/05/24 02:21:49;;;;;;;11.90;2.80;;;;;;;23.55;43.79;100302.28;4484940;32;34657;-62
2021/05/24 02:24:17;;;;;;;9.27;2.15;;;;;;;23.56;43.85;100305.84;4485055;32;33826;-62
2021/05/24 02:26:45;;;;;;;6.20;2.30;;;;;;;23.54;43.72;100311.50;4484795;32;35062;-62
2021/05/24 02:29:12;;;;;;;11.05;2.17;;;;;;;23.55;43.60;100307.75;4480711;32;33319;-61
2021/05/24 02:31:40;;;;;;;10.85;2.80;;;;;;;23.56;43.70;100308.56;4477019;32;33742;-60
2021/05/24 02:34:08;;;;;;;8.77;2.10;;;;;;;23.55;43.80;100301.44;4483410;32;33702;-60
2021/05/24 02:36:35;;;;;;;7.97;2.40;;;;;;;23.55;43.87;100309.59;4469045;32;34180;-60
2021/05/24 02:39:05;;;;;;;13.45;2.65;;;;;;;23.54;43.83;100308.75;4474240;32;33498;-60
2021/05/24 02:41:33;;;;;;;9.07;2.50;;;;;;;23.53;43.87;100314.44;4484822;32;34499;-60
2021/05/24 02:44:00;;;;;;;9.77;2.55;;;;;;;23.54;43.94;100314.22;4484962;32;33956;-60
2021/05/24 02:46:29;;;;;;;7.37;2.55;;;;;;;23.53;43.88;100318.00;4484614;32;34813;-60
2021/05/24 02:48:57;;;;;;;8.80;2.25;;;;;;;23.54;43.89;100321.56;4484812;32;33278;-60
2021/05/24 02:51:24;;;;;;;11.57;3.17;;;;;;;23.53;43.86;100323.44;4478227;32;34648;-61
2021/05/24 02:53:52;;;;;;;10.05;2.40;;;;;;;23.52;43.88;100329.94;4468887;32;33716;-60
2021/05/24 02:56:20;;;;;;;9.38;2.50;;;;;;;23.52;43.86;100338.13;4468983;32;34091;-60
2021/05/24 02:58:47;;;;;;;11.85;2.35;;;;;;;23.53;43.82;100352.56;4469004;32;33402;-61
2021/05/24 03:01:15;;;;;;;11.50;2.10;;;;;;;23.52;43.75;100346.28;4468870;32;33832;-60
2021/05/24 03:03:43;;;;;;;8.98;2.33;;;;;;;23.54;43.50;100351.50;4469319;32;33909;-60
2021/05/24 03:06:10;;;;;;;10.75;2.35;;;;;;;23.52;43.62;100346.28;4468880;32;34068;-60
2021/05/24 03:08:38;;;;;;;7.78;2.30;;;;;;;23.52;43.72;100345.47;4468758;32;33764;-60
2021/05/24 03:11:05;;;;;;;5.62;2.20;;;;;;;23.51;43.78;100350.06;4468911;32;34630;-60
2021/05/24 03:13:37;;;;;;;8.20;2.62;;;;;;;23.51;43.77;100344.63;4468782;32;33827;-60
2021/05/24 03:16:05;;;;;;;10.35;2.30;;;;;;;23.51;43.76;100336.44;4467439;32;34092;-60
2021/05/24 03:18:33;;;;;;;10.45;2.78;;;;;;;23.51;43.71;100341.06;4468898;32;33891;-61
2021/05/24 03:21:00;;;;;;;5.62;1.98;;;;;;;23.50;43.74;100337.50;4468823;32;33858;-60
2021/05/24 03:23:28;;;;;;;9.52;2.45;;;;;;;23.50;43.75;100340.22;4468955;32;33852;-61
2021/05/24 03:25:56;;;;;;;8.93;2.12;;;;;;;23.49;43.78;100341.25;4483971;32;34672;-60
2021/05/24 03:28:23;;;;;;;10.15;2.12;;;;;;;23.51;43.78;100357.41;4484475;32;34326;-60
2021/05/24 03:30:51;;;;;;;12.73;2.20;;;;;;;23.49;43.78;100360.31;4483231;32;33507;-61
2021/05/24 03:33:19;;;;;;;9.65;2.25;;;;;;;23.49;43.72;100359.50;4484435;32;33931;-61
2021/05/24 03:35:46;;;;;;;8.02;2.17;;;;;;;23.49;43.76;100352.16;4484322;32;33977;-60
2021/05/24 03:38:14;;;;;;;8.93;2.15;;;;;;;23.49;43.86;100349.44;4484191;32;34496;-61
2021/05/24 03:40:42;;;;;;;8.80;2.25;;;;;;;23.49;43.89;100357.59;4484322;32;34049;-60
2021/05/24 03:43:09;;;;;;;12.18;2.22;;;;;;;23.48;43.79;100358.66;4484308;32;33947;-60
2021/05/24 03:45:38;;;;;;;5.32;2.05;;;;;;;23.47;43.80;100351.53;4484253;32;33417;-61
2021/05/24 03:48:07;;;;;;;7.93;2.15;;;;;;;23.48;43.84;100357.81;4484647;32;33532;-61
2021/05/24 03:50:34;;;;;;;9.50;2.40;;;;;;;23.48;43.78;100350.47;4484279;32;33854;-60
2021/05/24 03:53:02;;;;;;;8.73;2.12;;;;;;;23.47;43.77;100354.28;4484346;32;33766;-61
2021/05/24 03:55:29;;;;;;;9.68;2.08;;;;;;;23.48;43.71;100352.37;4484274;32;34106;-60
2021/05/24 03:57:58;;;;;;;9.65;2.42;;;;;;;23.47;43.74;100348.81;4484295;32;33510;-60
2021/05/24 04:00:25;;;;;;;10.65;2.78;;;;;;;23.46;43.79;100349.88;4484219;32;33778;-61
2021/05/24 04:02:53;;;;;;;8.73;2.12;;;;;;;23.47;43.78;100350.72;4484269;32;33538;-60
2021/05/24 04:05:31;;;;;;;8.85;2.00;;;;;;;23.46;43.83;100349.88;4484177;32;34827;-61
2021/05/24 04:08:00;;;;;;;7.82;2.25;;;;;;;23.46;43.79;100357.22;4484321;32;34170;-60
2021/05/24 04:10:34;;;;;;;6.90;2.42;;;;;;;23.46;43.77;100368.09;4484144;32;33986;-60
2021/05/24 04:13:03;;;;;;;7.47;2.17;;;;;;;23.45;43.73;100366.41;4483998;32;33819;-60
2021/05/24 04:15:31;;;;;;;6.82;2.30;;;;;;;23.46;43.78;100368.09;4484035;32;34002;-61
2021/05/24 04:18:01;;;;;;;8.35;2.17;;;;;;;23.45;43.85;100374.59;4484107;32;34280;-60
2021/05/24 04:20:30;;;;;;;7.90;2.10;;;;;;;23.44;43.82;100376.47;4484149;32;33365;-60
2021/05/24 04:22:58;;;;;;;8.95;2.20;;;;;;;23.42;43.84;100381.31;4484285;32;33647;-61
2021/05/24 04:25:25;;;;;;;5.37;1.90;;;;;;;23.42;43.83;100376.69;4483948;32;34098;-60
2021/05/24 04:27:53;;;;;;;4.72;1.62;;;;;;;23.44;43.75;100376.47;4483984;32;33495;-61
2021/05/24 04:30:21;;;;;;;7.28;2.00;;;;;;;23.43;43.75;100381.09;4482354;32;33224;-62
2021/05/24 04:32:48;;;;;;;6.50;2.42;;;;;;;23.42;43.75;100379.41;4483834;32;34726;-63
2021/05/24 04:35:17;;;;;;;6.30;1.70;;;;;;;23.41;43.82;100377.75;4483922;32;33618;-62
2021/05/24 04:37:45;;;;;;;9.73;1.75;;;;;;;23.42;43.75;100378.59;4483796;32;34233;-62
2021/05/24 04:40:13;;;;;;;9.68;1.85;;;;;;;23.43;43.57;100372.91;4483739;32;33885;-62
2021/05/24 04:42:41;;;;;;;7.47;2.30;;;;;;;23.41;43.63;100371.47;4483763;32;33962;-62
2021/05/24 04:45:08;;;;;;;9.05;2.28;;;;;;;23.42;43.68;100362.25;4483883;32;34002;-63
2021/05/24 04:47:36;;;;;;;10.30;2.35;;;;;;;23.42;43.83;100367.69;4483759;32;34185;-62
2021/05/24 04:50:05;;;;;;;3.87;1.83;;;;;;;23.42;43.84;100356.78;4483822;32;33787;-62
2021/05/24 04:52:32;;;;;;;7.60;1.90;;;;;;;23.41;43.75;100366.84;4484024;32;33841;-63
2021/05/24 04:55:00;;;;;;;7.28;1.85;;;;;;;23.42;43.70;100365.81;4483676;32;33582;-63
2021/05/24 04:57:34;;;;;;;5.70;1.70;;;;;;;23.42;43.69;100363.06;4483780;32;33334;-61
2021/05/24 05:00:04;;;;;;;8.77;2.05;;;;;;;23.43;43.68;100370.19;4483922;32;33818;-62
2021/05/24 05:02:32;;;;;;;6.65;2.37;;;;;;;23.41;43.68;100375.03;4483875;32;33667;-61
2021/05/24 05:05:00;;;;;;;6.93;2.00;;;;;;;23.42;43.65;100387.59;4483848;32;34464;-62
2021/05/24 05:07:28;;;;;;;7.85;2.20;;;;;;;23.42;43.66;100398.47;4483943;32;33490;-61
2021/05/24 05:09:56;;;;;;;7.12;1.62;;;;;;;23.42;43.67;100394.94;4483776;32;33870;-61
2021/05/24 05:12:25;;;;;;;5.82;1.90;;;;;;;23.43;43.66;100399.31;4483837;32;33540;-62
2021/05/24 05:14:53;;;;;;;8.88;1.70;;;;;;;23.42;43.75;100414.81;4483519;32;35453;-61
2021/05/24 05:17:21;;;;;;;6.03;1.95;;;;;;;23.42;43.70;100419.44;4483513;32;34078;-62
2021/05/24 05:19:48;;;;;;;7.30;2.45;;;;;;;23.41;43.71;100415.88;4483478;32;34449;-62
2021/05/24 05:22:16;;;;;;;7.47;2.10;;;;;;;23.42;43.73;100412.09;4483357;32;34696;-61
2021/05/24 05:24:44;;;;;;;9.60;3.03;;;;;;;23.43;43.64;100394.69;4483267;32;33637;-62
2021/05/24 05:27:11;;;;;;;5.93;2.05;;;;;;;23.45;43.58;100388.19;4483416;32;33500;-63
2021/05/24 05:29:41;;;;;;;8.63;2.33;;;;;;;23.45;43.59;100380.03;4483521;32;33807;-61
2021/05/24 05:32:09;;;;;;;4.80;1.73;;;;;;;23.44;43.68;100390.09;4483278;32;33824;-63
2021/05/24 05:34:37;;;;;;;8.65;2.03;;;;;;;23.42;43.69;100387.59;4483452;32;34131;-62
2021/05/24 05:37:05;;;;;;;6.53;1.90;;;;;;;23.44;43.67;100379.19;4483149;32;33505;-62
2021/05/24 05:39:32;;;;;;;7.65;2.20;;;;;;;23.45;43.68;100366.41;4483363;32;33785;-62
2021/05/24 05:42:00;;;;;;;6.90;1.67;;;;;;;23.45;43.65;100371.84;4483259;32;33741;-62
2021/05/24 05:44:27;;;;;;;11.32;2.20;;;;;;;23.44;43.75;100373.75;4483060;32;34884;-62
2021/05/24 05:46:55;;;;;;;11.98;2.35;;;;;;;23.44;43.81;100379.19;4483118;32;33491;-61
2021/05/24 05:49:23;;;;;;;11.43;2.25;;;;;;;23.44;43.89;100376.47;4483059;32;33929;-61
2021/05/24 05:51:51;;;;;;;4.90;1.45;;;;;;;23.44;43.89;100379.19;4483141;32;33695;-62
2021/05/24 05:54:21;;;;;;;6.97;2.00;;;;;;;23.44;43.93;100384.62;4484751;32;33696;-61
2021/05/24 05:56:48;;;;;;;7.37;2.30;;;;;;;23.44;43.94;100384.62;4485019;32;34365;-61
2021/05/24 05:59:20;;;;;;;7.55;2.12;;;;;;;23.44;43.95;100384.62;4484936;32;33878;-62
2021/05/24 06:01:48;;;;;;;7.28;1.92;;;;;;;23.45;43.86;100393.66;4485042;32;33504;-62
2021/05/24 06:04:16;;;;;;;12.05;2.25;;;;;;;23.45;43.90;100394.47;4485062;32;34805;-62
2021/05/24 06:06:43;;;;;;;6.00;2.00;;;;;;;23.45;43.83;100407.25;4484971;32;33261;-62
2021/05/24 06:09:11;;;;;;;8.45;1.95;;;;;;;23.45;43.92;100410.81;4483782;32;34009;-62
2021/05/24 06:11:39;;;;;;;10.38;1.90;;;;;;;23.45;43.88;100415.44;4485068;32;34845;-61
2021/05/24 06:14:06;;;;;;;5.80;1.70;;;;;;;23.44;43.84;100411.88;4485129;32;34036;-62
2021/05/24 06:16:34;;;;;;;7.65;2.10;;;;;;;23.45;43.88;100413.53;4485091;32;33497;-61
2021/05/24 06:19:02;;;;;;;9.15;2.20;;;;;;;23.45;43.94;100413.53;4485126;32;34658;-61
2021/05/24 06:21:29;;;;;;;9.30;2.10;;;;;;;23.45;43.97;100410.81;4484858;32;35174;-62
2021/05/24 06:23:57;;;;;;;7.90;2.37;;;;;;;23.46;43.91;100406.25;4484928;32;34123;-62
2021/05/24 06:26:25;;;;;;;9.75;2.30;;;;;;;23.45;43.91;100408.09;4484846;32;33479;-62
2021/05/24 06:28:53;;;;;;;6.47;1.73;;;;;;;23.44;43.89;100420.03;4484833;32;33930;-62
2021/05/24 06:31:20;;;;;;;5.90;1.65;;;;;;;23.44;43.87;100425.50;4478737;32;33738;-62
2021/05/24 06:36:34;;;;;;;11.75;2.35;;;;;;;23.43;43.65;100413.75;4481799;32;33617;-61
2021/05/24 06:39:03;;;;;;;10.48;2.00;;;;;;;23.45;43.62;100410.81;4483530;32;34686;-60
2021/05/24 06:41:31;;;;;;;8.38;2.25;;;;;;;23.45;43.65;100404.53;4469003;32;34810;-62
2021/05/24 06:43:59;;;;;;;14.30;1.55;;;;;;;23.47;43.61;100424.25;4467775;32;34073;-62
2021/05/24 06:46:27;;;;;;;12.80;2.20;;;;;;;23.46;43.17;100428.03;4468021;32;34343;-61
2021/05/24 06:48:55;;;;;;;14.45;1.73;;;;;;;23.43;43.40;100426.56;4475272;32;33912;-63
2021/05/24 06:51:22;;;;;;;10.65;2.15;;;;;;;23.43;43.53;100443.72;4484516;32;33584;-63
2021/05/24 06:53:52;;;;;;;8.65;1.55;;;;;;;23.43;43.59;100437.44;4484577;32;33996;-63
2021/05/24 06:56:21;;;;;;;12.50;2.72;;;;;;;23.44;43.45;100433.66;4477837;32;34413;-62
2021/05/24 06:58:48;;;;;;;16.95;2.15;;;;;;;23.44;43.35;100422.78;4468906;32;33834;-63
2021/05/24 07:01:16;;;;;;;14.98;2.08;;;;;;;23.42;43.25;100423.00;4468956;32;33772;-61
2021/05/24 07:03:43;;;;;;;12.48;2.12;;;;;;;23.43;43.21;100404.75;4468890;32;34809;-63
2021/05/24 07:06:11;;;;;;;8.23;1.75;;;;;;;23.44;43.18;100398.25;4468188;32;33547;-63
2021/05/24 07:08:39;;;;;;;10.70;1.70;;;;;;;23.45;43.18;100399.09;4468808;32;33192;-63
2021/05/24 07:11:06;;;;;;;15.07;2.10;;;;;;;23.45;43.18;100399.09;4468908;32;33516;-63
2021/05/24 07:13:34;;;;;;;9.02;2.30;;;;;;;23.45;43.15;100407.25;4468873;32;34809;-63
2021/05/24 07:16:01;;;;;;;6.10;1.65;;;;;;;23.45;43.13;100397.19;4468821;32;33564;-62
2021/05/24 07:18:29;;;;;;;5.95;2.25;;;;;;;23.46;43.11;100389.91;4469030;32;33803;-61
2021/05/24 07:20:57;;;;;;;14.27;1.98;;;;;;;23.46;43.09;100400.78;4468892;32;33931;-63
2021/05/24 07:23:25;;;;;;;5.47;1.60;;;;;;;23.46;43.09;100393.44;4468229;32;33876;-62
2021/05/24 07:25:52;;;;;;;6.35;1.67;;;;;;;23.46;43.05;100392.63;4483345;32;34541;-60
2021/05/24 07:28:20;;;;;;;11.48;2.67;;;;;;;23.46;43.00;100390.72;4484354;32;34541;-61
2021/05/24 07:30:48;;;;;;;10.13;2.20;;;;;;;23.47;42.92;100386.13;4484105;32;33937;-60
2021/05/24 07:33:15;;;;;;;9.13;1.80;;;;;;;23.48;42.96;100382.34;4474657;32;34084;-60
2021/05/24 07:35:43;;;;;;;7.60;1.80;;;;;;;23.48;42.83;100399.50;4468582;32;33545;-60
2021/05/24 07:38:11;;;;;;;6.60;1.90;;;;;;;23.51;42.51;100390.09;4468117;32;33694;-61
2021/05/24 07:40:38;;;;;;;9.70;1.80;;;;;;;23.50;42.40;100374.78;4468611;32;33305;-60
2021/05/24 07:43:06;;;;;;;7.78;1.60;;;;;;;23.51;42.26;100354.69;4481033;32;34003;-60
2021/05/24 07:45:34;;;;;;;6.65;1.70;;;;;;;23.50;42.32;100359.31;4484126;32;33482;-60
2021/05/24 07:48:02;;;;;;;10.10;2.65;;;;;;;23.51;42.23;100363.69;4484390;32;33961;-59
2021/05/24 07:50:29;;;;;;;9.25;1.98;;;;;;;23.49;42.02;100364.94;4483745;32;34491;-60
2021/05/24 07:52:57;;;;;;;7.87;2.00;;;;;;;23.50;41.99;100374.78;4484166;32;33978;-60
2021/05/24 07:55:25;;;;;;;11.23;2.20;;;;;;;23.52;42.07;100373.53;4484040;32;33727;-60
2021/05/24 07:57:52;;;;;;;13.88;2.28;;;;;;;23.50;41.96;100356.56;4483989;32;34853;-60
2021/05/24 08:00:21;;;;;;;5.37;1.62;;;;;;;23.49;41.87;100365.78;4483982;32;34975;-60
2021/05/24 08:02:50;;;;;;;9.25;1.67;;;;;;;23.49;41.72;100364.94;4484241;32;34098;-60
2021/05/24 08:05:17;;;;;;;5.93;1.80;;;;;;;23.49;41.47;100364.94;4483974;32;34088;-59
2021/05/24 08:07:45;;;;;;;4.05;1.65;;;;;;;23.48;41.22;100376.88;4483920;32;33101;-60
2021/05/24 08:10:16;;;;;;;9.77;2.40;;;;;;;23.48;41.17;100383.16;4483425;32;33535;-60
2021/05/24 08:12:44;;;;;;;11.63;2.05;;;;;;;23.47;40.99;100377.94;4483812;32;34051;-60
2021/05/24 08:15:30;;;;;;;11.18;2.12;;;;;;;23.47;40.90;100364.34;4482942;32;33505;-59
2021/05/24 08:18:03;;;;;;;12.63;1.67;;;;;;;23.46;40.83;100368.94;4481868;32;33445;-61
2021/05/24 08:20:32;;;;;;;9.23;1.80;;;;;;;23.46;40.86;100368.94;4468275;32;33791;-60
2021/05/24 08:23:00;;;;;;;10.50;1.70;;;;;;;23.46;40.72;100381.72;4468066;32;34594;-60
2021/05/24 08:25:27;;;;;;;10.30;1.90;;;;;;;23.45;40.68;100377.31;4468267;32;34263;-60
2021/05/24 08:27:55;;;;;;;12.07;1.92;;;;;;;23.45;40.58;100375.41;4468144;32;33579;-60
2021/05/24 08:30:31;;;;;;;6.30;1.35;;;;;;;23.45;40.54;100385.47;4468166;32;33865;-60
2021/05/24 08:32:59;;;;;;;13.80;1.73;;;;;;;23.44;40.55;100373.75;4475352;32;33773;-60
2021/05/24 08:35:26;;;;;;;11.85;1.70;;;;;;;23.44;40.50;100376.47;4481921;32;33268;-60
2021/05/24 08:37:54;;;;;;;10.73;2.03;;;;;;;23.44;40.54;100376.47;4483800;32;33044;-60
2021/05/24 08:40:23;;;;;;;11.77;1.80;;;;;;;23.45;40.61;100377.31;4483724;32;34757;-60
2021/05/24 08:42:51;;;;;;;12.10;1.92;;;;;;;23.44;40.78;100381.91;4483973;32;34773;-60
2021/05/24 08:45:19;;;;;;;7.90;1.73;;;;;;;23.45;40.76;100397.19;4469544;32;34464;-61
2021/05/24 08:48:05;;;;;;;11.93;2.15;;;;;;;23.45;40.80;100394.47;4483680;32;34747;-60
2021/05/24 08:50:32;;;;;;;7.43;2.03;;;;;;;23.43;40.72;100386.53;4483914;32;33890;-59
2021/05/24 08:53:01;;;;;;;6.05;1.50;;;;;;;23.45;40.71;100385.47;4483473;32;33982;-60
2021/05/24 08:55:28;;;;;;;6.55;1.70;;;;;;;23.43;40.73;100380.25;4483304;32;34370;-60
2021/05/24 08:57:56;;;;;;;11.73;1.92;;;;;;;23.43;40.80;100383.81;4483509;32;33872;-60
2021/05/24 09:00:23;;;;;;;9.98;1.45;;;;;;;23.42;40.75;100378.59;4483362;32;33823;-60
2021/05/24 09:02:53;;;;;;;7.47;1.80;;;;;;;23.42;40.82;100382.13;4483855;32;33994;-61
2021/05/24 09:05:21;;;;;;;10.38;1.60;;;;;;;23.43;40.77;100389.25;4482280;32;33254;-60
2021/05/24 09:07:55;;;;;;;9.13;1.92;;;;;;;23.45;40.81;100396.37;4483622;32;33802;-60
2021/05/24 09:10:24;;;;;;;7.40;1.90;;;;;;;23.42;40.80;100382.13;4483739;32;33897;-59
2021/05/24 09:12:54;;;;;;;6.32;1.33;;;;;;;23.42;40.76;100379.41;4483348;32;33976;-61
2021/05/24 09:15:24;;;;;;;7.22;1.83;;;;;;;23.45;40.79;100377.31;4483499;32;34381;-60
2021/05/24 09:17:53;;;;;;;7.00;2.10;;;;;;;23.43;40.80;100370.19;4481685;32;33714;-61
2021/05/24 09:20:23;;;;;;;10.60;2.00;;;;;;;23.45;40.75;100371.84;4467486;32;34670;-59
2021/05/24 09:23:15;;;;;;;7.78;1.80;;;;;;;23.43;40.78;100367.47;4467877;32;33860;-60
2021/05/24 09:25:52;;;;;;;11.60;1.75;;;;;;;23.45;40.72;100372.69;4483258;32;34290;-60
2021/05/24 09:28:23;;;;;;;9.27;2.10;;;;;;;23.44;40.82;100376.47;4484571;32;33841;-60
2021/05/24 09:31:18;;;;;;;8.55;2.30;;;;;;;23.42;40.65;100373.13;4484462;32;33940;-61
2021/05/24 09:33:57;;;;;;;18.67;2.12;;;;;;;23.42;40.42;100378.59;4470691;31;34016;-61
2021/05/24 09:36:25;;;;;;;20.58;2.65;;;;;;;23.42;40.40;100368.53;4469029;32;34457;-61
2021/05/24 09:39:07;;;;;;;15.35;2.70;;;;;;;23.41;40.08;100355.97;4469105;32;34871;-61
2021/05/24 09:41:42;;;;;;;11.18;1.80;;;;;;;23.41;40.21;100347.78;4468345;32;34822;-53
2021/05/24 09:44:19;;;;;;;16.12;1.98;;;;;;;23.41;40.33;100350.53;4469339;32;33926;-59
2021/05/24 09:46:48;;;;;;;13.68;2.35;;;;;;;23.40;40.49;100346.09;4469399;32;33642;-55
2021/05/24 09:49:15;;;;;;;11.27;2.15;;;;;;;23.41;40.65;100338.78;4469410;32;34680;-60
2021/05/24 09:51:44;;;;;;;9.18;2.00;;;;;;;23.42;40.65;100337.72;4469052;32;33799;-60
2021/05/24 09:54:13;;;;;;;9.85;2.28;;;;;;;23.42;40.70;100332.28;4469424;32;35045;-60
2021/05/24 09:56:47;;;;;;;11.95;1.85;;;;;;;23.42;40.70;100333.13;4469386;32;33247;-59
2021/05/24 09:59:16;;;;;;;6.85;2.33;;;;;;;23.45;40.73;100317.38;4468757;32;33601;-60
2021/05/24 10:01:50;;;;;;;16.95;2.40;;;;;;;23.45;40.70;100315.50;4469042;32;35498;-59
2021/05/24 10:04:20;;;;;;;9.20;2.22;;;;;;;23.47;40.73;100316.13;4468828;32;34843;-60
2021/05/24 10:06:48;;;;;;;8.02;2.25;;;;;;;23.46;40.74;100322.66;4469038;32;33459;-61
2021/05/24 10:09:18;;;;;;;15.00;2.00;;;;;;;23.50;40.65;100331.19;4468860;32;33845;-60
2021/05/24 10:11:48;;;;;;;8.90;2.55;;;;;;;23.49;40.50;100322.19;4468847;32;33930;-61
2021/05/24 10:14:18;;;;;;;15.83;2.63;;;;;;;23.49;40.38;100335.81;4469393;32;34096;-60
2021/05/24 10:17:00;;;;;;;8.77;2.30;;;;;;;23.51;40.12;100344.63;4468604;32;33314;-60
2021/05/24 10:19:28;;;;;;;8.23;1.90;;;;;;;23.52;40.08;100340.00;4480330;32;33942;-60
2021/05/24 10:21:56;;;;;;;9.32;2.10;;;;;;;23.51;40.01;100336.44;4484919;32;33931;-61
2021/05/24 10:24:25;;;;;;;17.08;2.78;;;;;;;23.50;39.85;100325.75;4483402;32;34066;-62
2021/05/24 10:26:55;;;;;;;7.68;2.00;;;;;;;23.49;39.88;100319.47;4484740;32;33651;-62
2021/05/24 10:29:23;;;;;;;6.05;2.62;;;;;;;23.51;39.86;100332.91;4485086;32;33863;-60
2021/05/24 10:31:50;;;;;;;12.05;2.30;;;;;;;23.51;39.86;100331.00;4483124;32;33936;-61
2021/05/24 10:34:19;;;;;;;10.27;1.87;;;;;;;23.49;39.89;100314.03;4469397;32;34062;-62
2021/05/24 10:37:26;;;;;;;13.40;2.40;;;;;;;23.48;39.92;100317.81;4469116;32;33568;-62
2021/05/24 10:39:55;;;;;;;6.60;1.75;;;;;;;23.52;39.90;100308.16;4422331;32;33754;-62
2021/05/24 10:42:35;;;;;;;8.93;2.20;;;;;;;23.47;40.00;100299.78;4435360;32;33706;-62
2021/05/24 10:45:17;;;;;;;7.37;2.33;;;;;;;23.48;40.07;100300.63;4447961;32;34728;-60
2021/05/24 10:47:59;;;;;;;17.27;1.90;;;;;;;23.49;40.04;100316.75;4468004;32;33473;-61
2021/05/24 10:50:30;;;;;;;7.68;1.95;;;;;;;23.47;40.12;100318.87;4468794;32;33795;-62
2021/05/24 10:53:09;;;;;;;6.80;1.92;;;;;;;23.44;40.20;100319.28;4468847;32;34706;-62
2021/05/24 10:55:38;;;;;;;10.10;2.25;;;;;;;23.45;40.21;100318.22;4468892;32;34060;-62
2021/05/24 10:58:09;;;;;;;10.48;2.05;;;;;;;23.43;40.32;100304.00;4468585;32;33621;-62
2021/05/24 11:00:49;;;;;;;6.68;1.83;;;;;;;23.44;40.34;100302.94;4468800;32;33831;-61
2021/05/24 11:03:17;;;;;;;7.37;1.90;;;;;;;23.45;40.36;100301.87;4468840;32;34685;-62
2021/05/24 11:06:07;;;;;;;8.25;1.83;;;;;;;23.43;40.41;100283.03;4468925;32;34913;-62
2021/05/24 11:08:36;;;;;;;7.05;1.80;;;;;;;23.42;40.46;100281.37;4468758;32;32504;-62
2021/05/24 11:11:22;;;;;;;6.28;1.75;;;;;;;23.43;40.46;100288.50;4468785;32;34602;-62
2021/05/24 11:14:05;;;;;;;7.28;1.70;;;;;;;23.45;40.46;100287.44;4468740;32;34508;-61
2021/05/24 11:16:34;;;;;;;9.10;2.20;;;;;;;23.42;40.48;100278.66;4468803;32;34207;-62
2021/05/24 11:19:12;;;;;;;3.53;1.73;;;;;;;23.40;40.52;100272.56;4468459;32;34310;-62
2021/05/24 11:21:40;;;;;;;6.28;1.83;;;;;;;23.41;40.56;100273.44;4468900;32;34680;-61
2021/05/24 11:24:35;;;;;;;8.75;1.87;;;;;;;23.41;40.60;100266.09;4468809;32;33801;-62
2021/05/24 11:27:10;;;;;;;4.37;1.48;;;;;;;23.43;40.57;100266.69;4468742;32;34477;-62
2021/05/24 11:29:39;;;;;;;6.37;1.80;;;;;;;23.41;40.58;100267.97;4468457;32;33544;-62
2021/05/24 11:32:17;;;;;;;5.72;1.60;;;;;;;23.40;40.62;100269.00;4469247;32;34637;-61
2021/05/24 11:34:45;;;;;;;4.93;1.90;;;;;;;23.41;40.62;100262.53;4484420;32;33966;-62